sensor_id;sensor_type;location;lat;lon;timestamp;P1;durP1;ratioP1;P2;durP2;ratioP2
21266;SDS011;10791;53.108;18.326;2023-01-29T00:04:57;17.57;;;8.27;;
21266;SDS011;10791;53.108;18.326;2023-01-29T00:10:24;11.97;;;7.13;;
21266;SDS011;10791;53.108;18.326;2023-01-29T00:15:27;15.77;;;8.23;;
21266;SDS011;10791;53.108;18.326;2023-01-29T00:20:35;21.07;;;8.77;;
21266;SDS011;10791;53.108;18.326;2023-01-29T00:25:38;15.10;;;8.50;;
21266;SDS011;10791;53.108;18.326;2023-01-29T00:30:41;18.63;;;8.57;;
21266;SDS011;10791;53.108;18.326;2023-01-29T00:35:45;15.70;;;8.60;;
21266;SDS011;10791;53.108;18.326;2023-01-29T00:40:48;15.53;;;7.10;;
21266;SDS011;10791;53.108;18.326;2023-01-29T00:46:10;16.60;;;8.63;;
21266;SDS011;10791;53.108;18.326;2023-01-29T00:51:13;13.97;;;7.70;;
21266;SDS011;10791;53.108;18.326;2023-01-29T00:56:16;16.87;;;6.83;;
21266;SDS011;10791;53.108;18.326;2023-01-29T01:01:19;17.03;;;8.30;;
21266;SDS011;10791;53.108;18.326;2023-01-29T01:06:48;15.10;;;8.37;;
21266;SDS011;10791;53.108;18.326;2023-01-29T01:11:51;17.33;;;7.97;;
21266;SDS011;10791;53.108;18.326;2023-01-29T01:16:55;14.40;;;6.57;;
21266;SDS011;10791;53.108;18.326;2023-01-29T01:21:58;12.00;;;6.53;;
21266;SDS011;10791;53.108;18.326;2023-01-29T01:27:02;15.97;;;7.60;;
21266;SDS011;10791;53.108;18.326;2023-01-29T01:32:05;14.13;;;6.80;;
21266;SDS011;10791;53.108;18.326;2023-01-29T01:37:08;13.00;;;6.33;;
21266;SDS011;10791;53.108;18.326;2023-01-29T01:42:11;12.80;;;6.73;;
21266;SDS011;10791;53.108;18.326;2023-01-29T01:47:19;13.90;;;5.47;;
21266;SDS011;10791;53.108;18.326;2023-01-29T01:52:45;12.20;;;7.00;;
21266;SDS011;10791;53.108;18.326;2023-01-29T01:57:54;11.90;;;5.43;;
21266;SDS011;10791;53.108;18.326;2023-01-29T02:03:03;10.23;;;5.60;;
21266;SDS011;10791;53.108;18.326;2023-01-29T02:08:50;9.43;;;5.30;;
21266;SDS011;10791;53.108;18.326;2023-01-29T02:14:18;12.37;;;4.10;;
21266;SDS011;10791;53.108;18.326;2023-01-29T02:19:40;10.27;;;4.70;;
21266;SDS011;10791;53.108;18.326;2023-01-29T02:25:01;9.67;;;4.53;;
21266;SDS011;10791;53.108;18.326;2023-01-29T02:30:35;8.50;;;3.60;;
21266;SDS011;10791;53.108;18.326;2023-01-29T02:36:10;10.27;;;4.77;;
21266;SDS011;10791;53.108;18.326;2023-01-29T02:46:49;7.10;;;3.73;;
21266;SDS011;10791;53.108;18.326;2023-01-29T02:57:31;5.97;;;3.07;;
21266;SDS011;10791;53.108;18.326;2023-01-29T03:03:01;7.63;;;3.90;;
21266;SDS011;10791;53.108;18.326;2023-01-29T03:08:20;9.67;;;3.10;;
21266;SDS011;10791;53.108;18.326;2023-01-29T03:13:45;4.37;;;2.60;;
21266;SDS011;10791;53.108;18.326;2023-01-29T03:18:59;8.93;;;3.80;;
21266;SDS011;10791;53.108;18.326;2023-01-29T03:24:08;5.57;;;3.10;;
21266;SDS011;10791;53.108;18.326;2023-01-29T03:29:36;7.83;;;4.10;;
21266;SDS011;10791;53.108;18.326;2023-01-29T03:35:01;7.30;;;3.13;;
21266;SDS011;10791;53.108;18.326;2023-01-29T03:40:09;5.80;;;3.67;;
21266;SDS011;10791;53.108;18.326;2023-01-29T03:45:26;9.03;;;3.93;;
21266;SDS011;10791;53.108;18.326;2023-01-29T04:01:44;5.90;;;3.33;;
21266;SDS011;10791;53.108;18.326;2023-01-29T04:06:57;5.03;;;3.17;;
21266;SDS011;10791;53.108;18.326;2023-01-29T04:12:07;6.60;;;3.20;;
21266;SDS011;10791;53.108;18.326;2023-01-29T04:17:32;8.77;;;3.37;;
21266;SDS011;10791;53.108;18.326;2023-01-29T04:22:38;7.23;;;3.47;;
21266;SDS011;10791;53.108;18.326;2023-01-29T04:33:16;8.50;;;3.47;;
21266;SDS011;10791;53.108;18.326;2023-01-29T04:44:34;8.80;;;3.77;;
21266;SDS011;10791;53.108;18.326;2023-01-29T04:49:56;5.70;;;3.83;;
21266;SDS011;10791;53.108;18.326;2023-01-29T04:55:19;9.53;;;4.47;;
21266;SDS011;10791;53.108;18.326;2023-01-29T05:00:35;5.87;;;3.63;;
21266;SDS011;10791;53.108;18.326;2023-01-29T05:05:45;9.63;;;3.43;;
21266;SDS011;10791;53.108;18.326;2023-01-29T05:10:51;10.37;;;4.10;;
21266;SDS011;10791;53.108;18.326;2023-01-29T05:16:13;8.13;;;3.73;;
21266;SDS011;10791;53.108;18.326;2023-01-29T05:21:44;6.33;;;3.67;;
21266;SDS011;10791;53.108;18.326;2023-01-29T05:26:50;6.43;;;3.40;;
21266;SDS011;10791;53.108;18.326;2023-01-29T05:32:14;7.07;;;3.80;;
21266;SDS011;10791;53.108;18.326;2023-01-29T05:37:18;7.47;;;3.63;;
21266;SDS011;10791;53.108;18.326;2023-01-29T05:42:21;8.57;;;3.97;;
21266;SDS011;10791;53.108;18.326;2023-01-29T05:47:28;6.63;;;3.60;;
21266;SDS011;10791;53.108;18.326;2023-01-29T05:52:32;7.40;;;4.23;;
21266;SDS011;10791;53.108;18.326;2023-01-29T05:57:38;9.33;;;3.97;;
21266;SDS011;10791;53.108;18.326;2023-01-29T06:02:42;7.17;;;3.47;;
21266;SDS011;10791;53.108;18.326;2023-01-29T06:07:46;7.77;;;4.63;;
21266;SDS011;10791;53.108;18.326;2023-01-29T06:12:49;13.50;;;4.90;;
21266;SDS011;10791;53.108;18.326;2023-01-29T06:17:53;7.67;;;4.63;;
21266;SDS011;10791;53.108;18.326;2023-01-29T06:22:57;13.00;;;3.93;;
21266;SDS011;10791;53.108;18.326;2023-01-29T06:28:00;8.43;;;4.83;;
21266;SDS011;10791;53.108;18.326;2023-01-29T06:33:03;12.40;;;5.27;;
21266;SDS011;10791;53.108;18.326;2023-01-29T06:38:07;10.30;;;4.97;;
21266;SDS011;10791;53.108;18.326;2023-01-29T06:43:10;10.90;;;6.23;;
21266;SDS011;10791;53.108;18.326;2023-01-29T06:48:16;11.37;;;5.57;;
21266;SDS011;10791;53.108;18.326;2023-01-29T06:53:20;11.47;;;6.03;;
21266;SDS011;10791;53.108;18.326;2023-01-29T06:58:24;10.83;;;6.20;;
21266;SDS011;10791;53.108;18.326;2023-01-29T07:03:27;10.73;;;6.37;;
21266;SDS011;10791;53.108;18.326;2023-01-29T07:08:34;11.13;;;6.10;;
21266;SDS011;10791;53.108;18.326;2023-01-29T07:13:38;13.73;;;6.23;;
21266;SDS011;10791;53.108;18.326;2023-01-29T07:18:41;11.93;;;6.17;;
21266;SDS011;10791;53.108;18.326;2023-01-29T07:23:45;11.10;;;6.03;;
21266;SDS011;10791;53.108;18.326;2023-01-29T07:28:48;11.53;;;6.17;;
21266;SDS011;10791;53.108;18.326;2023-01-29T07:33:51;13.53;;;7.27;;
21266;SDS011;10791;53.108;18.326;2023-01-29T07:38:59;11.37;;;6.47;;
21266;SDS011;10791;53.108;18.326;2023-01-29T07:44:02;11.70;;;6.47;;
21266;SDS011;10791;53.108;18.326;2023-01-29T07:49:05;13.20;;;6.27;;
21266;SDS011;10791;53.108;18.326;2023-01-29T07:54:09;11.87;;;6.23;;
21266;SDS011;10791;53.108;18.326;2023-01-29T07:59:12;14.50;;;7.73;;
21266;SDS011;10791;53.108;18.326;2023-01-29T08:04:16;12.43;;;6.30;;
21266;SDS011;10791;53.108;18.326;2023-01-29T08:09:19;11.50;;;6.23;;
21266;SDS011;10791;53.108;18.326;2023-01-29T08:14:24;16.90;;;7.67;;
21266;SDS011;10791;53.108;18.326;2023-01-29T08:19:28;14.67;;;7.47;;
21266;SDS011;10791;53.108;18.326;2023-01-29T08:24:32;13.20;;;7.50;;
21266;SDS011;10791;53.108;18.326;2023-01-29T08:29:56;11.50;;;7.30;;
21266;SDS011;10791;53.108;18.326;2023-01-29T08:34:59;15.37;;;7.97;;
21266;SDS011;10791;53.108;18.326;2023-01-29T08:40:03;14.77;;;8.63;;
21266;SDS011;10791;53.108;18.326;2023-01-29T08:45:08;15.07;;;8.67;;
21266;SDS011;10791;53.108;18.326;2023-01-29T08:50:13;16.93;;;7.70;;
21266;SDS011;10791;53.108;18.326;2023-01-29T08:55:18;15.10;;;8.40;;
21266;SDS011;10791;53.108;18.326;2023-01-29T09:00:21;17.90;;;7.83;;
21266;SDS011;10791;53.108;18.326;2023-01-29T09:05:26;10.77;;;7.40;;
21266;SDS011;10791;53.108;18.326;2023-01-29T09:10:30;12.77;;;6.63;;
21266;SDS011;10791;53.108;18.326;2023-01-29T09:15:34;15.77;;;8.33;;
21266;SDS011;10791;53.108;18.326;2023-01-29T09:20:37;15.30;;;8.13;;
21266;SDS011;10791;53.108;18.326;2023-01-29T09:25:44;13.37;;;8.03;;
21266;SDS011;10791;53.108;18.326;2023-01-29T09:30:53;14.83;;;7.60;;
21266;SDS011;10791;53.108;18.326;2023-01-29T09:35:57;16.73;;;7.90;;
21266;SDS011;10791;53.108;18.326;2023-01-29T09:51:39;14.83;;;7.67;;
21266;SDS011;10791;53.108;18.326;2023-01-29T09:56:46;13.00;;;7.87;;
21266;SDS011;10791;53.108;18.326;2023-01-29T10:23:05;17.53;;;8.97;;
21266;SDS011;10791;53.108;18.326;2023-01-29T10:33:38;21.10;;;9.90;;
21266;SDS011;10791;53.108;18.326;2023-01-29T10:39:03;19.17;;;9.73;;
21266;SDS011;10791;53.108;18.326;2023-01-29T10:44:14;20.77;;;10.60;;
21266;SDS011;10791;53.108;18.326;2023-01-29T10:49:24;21.27;;;10.83;;
21266;SDS011;10791;53.108;18.326;2023-01-29T10:54:53;19.00;;;9.30;;
21266;SDS011;10791;53.108;18.326;2023-01-29T11:00:23;19.57;;;8.40;;
21266;SDS011;10791;53.108;18.326;2023-01-29T11:05:36;20.90;;;10.57;;
21266;SDS011;10791;53.108;18.326;2023-01-29T11:10:59;21.63;;;10.10;;
21266;SDS011;10791;53.108;18.326;2023-01-29T11:16:11;18.50;;;9.00;;
21266;SDS011;10791;53.108;18.326;2023-01-29T11:21:15;19.77;;;9.43;;
21266;SDS011;10791;53.108;18.326;2023-01-29T11:26:19;19.53;;;10.33;;
21266;SDS011;10791;53.108;18.326;2023-01-29T11:31:26;18.50;;;9.40;;
21266;SDS011;10791;53.108;18.326;2023-01-29T11:36:40;20.43;;;11.00;;
21266;SDS011;10791;53.108;18.326;2023-01-29T11:52:26;16.10;;;9.40;;
21266;SDS011;10791;53.108;18.326;2023-01-29T11:57:41;15.93;;;9.33;;
21266;SDS011;10791;53.108;18.326;2023-01-29T12:02:51;20.23;;;10.50;;
21266;SDS011;10791;53.108;18.326;2023-01-29T12:07:59;18.13;;;10.43;;
21266;SDS011;10791;53.108;18.326;2023-01-29T12:18:34;22.20;;;8.73;;
21266;SDS011;10791;53.108;18.326;2023-01-29T12:29:18;18.40;;;9.03;;
21266;SDS011;10791;53.108;18.326;2023-01-29T12:35:05;20.77;;;10.73;;
21266;SDS011;10791;53.108;18.326;2023-01-29T12:40:15;21.43;;;11.90;;
21266;SDS011;10791;53.108;18.326;2023-01-29T12:45:21;23.60;;;11.27;;
21266;SDS011;10791;53.108;18.326;2023-01-29T12:50:29;20.33;;;8.90;;
21266;SDS011;10791;53.108;18.326;2023-01-29T13:00:43;19.10;;;9.20;;
21266;SDS011;10791;53.108;18.326;2023-01-29T13:06:01;19.93;;;10.70;;
21266;SDS011;10791;53.108;18.326;2023-01-29T13:11:13;21.73;;;10.67;;
21266;SDS011;10791;53.108;18.326;2023-01-29T13:16:24;21.63;;;12.23;;
21266;SDS011;10791;53.108;18.326;2023-01-29T13:21:36;23.33;;;11.57;;
21266;SDS011;10791;53.108;18.326;2023-01-29T13:26:44;21.40;;;10.33;;
21266;SDS011;10791;53.108;18.326;2023-01-29T13:31:48;22.23;;;11.27;;
21266;SDS011;10791;53.108;18.326;2023-01-29T13:36:56;20.00;;;11.17;;
21266;SDS011;10791;53.108;18.326;2023-01-29T13:42:13;19.83;;;10.87;;
21266;SDS011;10791;53.108;18.326;2023-01-29T13:47:26;22.40;;;11.50;;
21266;SDS011;10791;53.108;18.326;2023-01-29T13:52:37;26.70;;;12.27;;
21266;SDS011;10791;53.108;18.326;2023-01-29T14:18:26;27.47;;;12.50;;
21266;SDS011;10791;53.108;18.326;2023-01-29T14:29:03;27.27;;;11.63;;
21266;SDS011;10791;53.108;18.326;2023-01-29T14:39:55;28.60;;;12.47;;
21266;SDS011;10791;53.108;18.326;2023-01-29T15:00:57;26.30;;;11.50;;
21266;SDS011;10791;53.108;18.326;2023-01-29T15:06:03;26.27;;;12.40;;
21266;SDS011;10791;53.108;18.326;2023-01-29T15:11:24;27.03;;;12.50;;
21266;SDS011;10791;53.108;18.326;2023-01-29T15:22:05;23.07;;;10.87;;
21266;SDS011;10791;53.108;18.326;2023-01-29T15:27:19;20.63;;;11.17;;
21266;SDS011;10791;53.108;18.326;2023-01-29T15:32:25;17.37;;;9.97;;
21266;SDS011;10791;53.108;18.326;2023-01-29T15:43:26;22.93;;;12.07;;
21266;SDS011;10791;53.108;18.326;2023-01-29T15:48:38;20.30;;;11.10;;
21266;SDS011;10791;53.108;18.326;2023-01-29T15:53:51;22.30;;;11.60;;
21266;SDS011;10791;53.108;18.326;2023-01-29T15:58:58;25.90;;;12.13;;
21266;SDS011;10791;53.108;18.326;2023-01-29T16:04:12;27.20;;;12.17;;
21266;SDS011;10791;53.108;18.326;2023-01-29T16:09:23;22.27;;;11.37;;
21266;SDS011;10791;53.108;18.326;2023-01-29T16:14:29;25.47;;;12.70;;
21266;SDS011;10791;53.108;18.326;2023-01-29T16:19:33;25.50;;;10.80;;
21266;SDS011;10791;53.108;18.326;2023-01-29T16:24:37;25.37;;;11.73;;
21266;SDS011;10791;53.108;18.326;2023-01-29T16:29:41;24.90;;;11.10;;
21266;SDS011;10791;53.108;18.326;2023-01-29T16:34:46;30.27;;;13.90;;
21266;SDS011;10791;53.108;18.326;2023-01-29T16:39:53;30.10;;;12.20;;
21266;SDS011;10791;53.108;18.326;2023-01-29T16:45:01;26.40;;;13.00;;
21266;SDS011;10791;53.108;18.326;2023-01-29T16:55:59;24.70;;;12.27;;
21266;SDS011;10791;53.108;18.326;2023-01-29T17:01:08;26.13;;;12.93;;
21266;SDS011;10791;53.108;18.326;2023-01-29T17:06:22;24.03;;;11.10;;
21266;SDS011;10791;53.108;18.326;2023-01-29T17:16:52;30.50;;;13.50;;
21266;SDS011;10791;53.108;18.326;2023-01-29T17:22:09;29.40;;;13.13;;
21266;SDS011;10791;53.108;18.326;2023-01-29T17:27:20;26.07;;;12.90;;
21266;SDS011;10791;53.108;18.326;2023-01-29T17:32:24;28.90;;;13.30;;
21266;SDS011;10791;53.108;18.326;2023-01-29T17:37:49;30.83;;;14.03;;
21266;SDS011;10791;53.108;18.326;2023-01-29T17:42:56;31.57;;;14.43;;
21266;SDS011;10791;53.108;18.326;2023-01-29T17:48:01;24.60;;;13.13;;
21266;SDS011;10791;53.108;18.326;2023-01-29T17:53:06;27.83;;;13.70;;
21266;SDS011;10791;53.108;18.326;2023-01-29T17:58:26;28.57;;;13.80;;
21266;SDS011;10791;53.108;18.326;2023-01-29T18:03:34;27.97;;;13.43;;
21266;SDS011;10791;53.108;18.326;2023-01-29T18:08:39;26.70;;;13.27;;
21266;SDS011;10791;53.108;18.326;2023-01-29T18:13:47;27.60;;;14.03;;
21266;SDS011;10791;53.108;18.326;2023-01-29T18:18:52;30.43;;;13.73;;
21266;SDS011;10791;53.108;18.326;2023-01-29T18:23:58;28.37;;;13.27;;
21266;SDS011;10791;53.108;18.326;2023-01-29T18:29:03;32.90;;;15.03;;
21266;SDS011;10791;53.108;18.326;2023-01-29T18:34:09;25.57;;;11.47;;
21266;SDS011;10791;53.108;18.326;2023-01-29T18:39:16;32.53;;;14.87;;
21266;SDS011;10791;53.108;18.326;2023-01-29T18:44:22;31.77;;;14.80;;
21266;SDS011;10791;53.108;18.326;2023-01-29T18:49:29;36.17;;;14.97;;
21266;SDS011;10791;53.108;18.326;2023-01-29T18:54:36;24.83;;;11.03;;
21266;SDS011;10791;53.108;18.326;2023-01-29T18:59:40;31.37;;;13.73;;
21266;SDS011;10791;53.108;18.326;2023-01-29T19:04:48;26.90;;;13.07;;
21266;SDS011;10791;53.108;18.326;2023-01-29T19:09:55;29.47;;;14.30;;
21266;SDS011;10791;53.108;18.326;2023-01-29T19:15:01;30.13;;;14.97;;
21266;SDS011;10791;53.108;18.326;2023-01-29T19:20:06;28.13;;;14.27;;
21266;SDS011;10791;53.108;18.326;2023-01-29T19:25:14;28.57;;;14.03;;
21266;SDS011;10791;53.108;18.326;2023-01-29T19:30:22;28.40;;;12.83;;
21266;SDS011;10791;53.108;18.326;2023-01-29T19:35:26;32.90;;;13.70;;
21266;SDS011;10791;53.108;18.326;2023-01-29T19:40:34;30.03;;;15.50;;
21266;SDS011;10791;53.108;18.326;2023-01-29T19:45:41;28.10;;;15.37;;
21266;SDS011;10791;53.108;18.326;2023-01-29T19:51:02;28.87;;;13.80;;
21266;SDS011;10791;53.108;18.326;2023-01-29T19:56:13;30.90;;;15.93;;
21266;SDS011;10791;53.108;18.326;2023-01-29T20:01:20;29.43;;;15.10;;
21266;SDS011;10791;53.108;18.326;2023-01-29T20:06:27;31.30;;;14.10;;
21266;SDS011;10791;53.108;18.326;2023-01-29T20:11:36;32.50;;;15.23;;
21266;SDS011;10791;53.108;18.326;2023-01-29T20:16:41;24.43;;;13.40;;
21266;SDS011;10791;53.108;18.326;2023-01-29T20:21:46;33.00;;;15.53;;
21266;SDS011;10791;53.108;18.326;2023-01-29T20:26:50;30.87;;;15.77;;
21266;SDS011;10791;53.108;18.326;2023-01-29T20:31:55;28.77;;;15.00;;
21266;SDS011;10791;53.108;18.326;2023-01-29T20:37:02;20.30;;;11.03;;
21266;SDS011;10791;53.108;18.326;2023-01-29T20:42:10;23.07;;;12.83;;
21266;SDS011;10791;53.108;18.326;2023-01-29T20:47:15;23.83;;;12.63;;
21266;SDS011;10791;53.108;18.326;2023-01-29T20:52:20;24.33;;;12.57;;
21266;SDS011;10791;53.108;18.326;2023-01-29T20:57:28;25.07;;;14.30;;
21266;SDS011;10791;53.108;18.326;2023-01-29T21:02:34;23.70;;;13.20;;
21266;SDS011;10791;53.108;18.326;2023-01-29T21:07:41;20.63;;;10.73;;
21266;SDS011;10791;53.108;18.326;2023-01-29T21:12:46;22.50;;;12.90;;
21266;SDS011;10791;53.108;18.326;2023-01-29T21:17:56;21.67;;;10.77;;
21266;SDS011;10791;53.108;18.326;2023-01-29T21:23:05;21.40;;;11.40;;
21266;SDS011;10791;53.108;18.326;2023-01-29T21:28:11;22.57;;;12.57;;
21266;SDS011;10791;53.108;18.326;2023-01-29T21:33:16;18.73;;;11.03;;
21266;SDS011;10791;53.108;18.326;2023-01-29T21:38:20;22.93;;;12.40;;
21266;SDS011;10791;53.108;18.326;2023-01-29T21:43:25;22.90;;;12.53;;
21266;SDS011;10791;53.108;18.326;2023-01-29T21:48:30;21.80;;;11.53;;
21266;SDS011;10791;53.108;18.326;2023-01-29T21:53:34;20.30;;;11.00;;
21266;SDS011;10791;53.108;18.326;2023-01-29T21:58:38;19.63;;;9.90;;
21266;SDS011;10791;53.108;18.326;2023-01-29T22:03:41;22.40;;;10.60;;
21266;SDS011;10791;53.108;18.326;2023-01-29T22:08:48;22.00;;;11.70;;
21266;SDS011;10791;53.108;18.326;2023-01-29T22:13:51;19.47;;;9.93;;
21266;SDS011;10791;53.108;18.326;2023-01-29T22:18:56;21.37;;;11.73;;
21266;SDS011;10791;53.108;18.326;2023-01-29T22:24:00;23.53;;;12.30;;
21266;SDS011;10791;53.108;18.326;2023-01-29T22:29:03;21.53;;;12.17;;
21266;SDS011;10791;53.108;18.326;2023-01-29T22:34:08;19.83;;;11.63;;
21266;SDS011;10791;53.108;18.326;2023-01-29T22:39:13;20.93;;;12.43;;
21266;SDS011;10791;53.108;18.326;2023-01-29T22:44:17;23.97;;;13.00;;
21266;SDS011;10791;53.108;18.326;2023-01-29T22:49:20;18.13;;;11.37;;
21266;SDS011;10791;53.108;18.326;2023-01-29T22:54:24;20.30;;;10.83;;
21266;SDS011;10791;53.108;18.326;2023-01-29T22:59:28;21.77;;;12.20;;
21266;SDS011;10791;53.108;18.326;2023-01-29T23:04:32;20.50;;;11.33;;
21266;SDS011;10791;53.108;18.326;2023-01-29T23:09:35;20.63;;;11.83;;
21266;SDS011;10791;53.108;18.326;2023-01-29T23:14:39;18.90;;;10.93;;
21266;SDS011;10791;53.108;18.326;2023-01-29T23:19:43;21.13;;;12.23;;
21266;SDS011;10791;53.108;18.326;2023-01-29T23:24:46;15.83;;;9.87;;
21266;SDS011;10791;53.108;18.326;2023-01-29T23:29:49;21.77;;;11.43;;
21266;SDS011;10791;53.108;18.326;2023-01-29T23:34:52;22.13;;;10.40;;
21266;SDS011;10791;53.108;18.326;2023-01-29T23:39:55;18.27;;;10.83;;
21266;SDS011;10791;53.108;18.326;2023-01-29T23:44:59;19.63;;;11.30;;
21266;SDS011;10791;53.108;18.326;2023-01-29T23:50:02;19.43;;;10.53;;
21266;SDS011;10791;53.108;18.326;2023-01-29T23:55:05;18.30;;;10.33;;
